CheckWX is a tool to help pilots better visualize weather data.  It is not intended as a substitute for an official pre-flight weather briefing.

01:45:58 UTC

SCAT METAR
Desierto de Atacama Airport
Copiapo, Chile
Current

46 mins ago

SCAT 210100Z AUTO 26004KT 9999 // ///015 16/12 Q1016
Observed
Mar-21 @ 01:00 UTC
Wind
  • 260° at 4 KTS
Visibility
10,000+ meters
Temperature
16°C / 61°F
Dewpoint
12°C / 54°F
Humidity
77%
Altimeter
30" Hg
Pressure
1015.92 hPa
Previous

2 hours ago

SCAT 210000Z 31006KT 9999 FEW020 16/12 Q1016
Observed
Mar-21 @ 00:00 UTC
Wind
  • 310° at 6 KTS
Visibility
10,000+ meters
Flight Rules
VFR
Cloud Levels
  • Few at 2,000' AGL
Temperature
16°C / 61°F
Dewpoint
12°C / 54°F
Humidity
77%
Altimeter
30" Hg
Pressure
1015.92 hPa
Previous

3 hours ago

SCAT 202300Z 33009KT 9999 FEW020 17/12 Q1016
Observed
Mar-20 @ 23:00 UTC
Wind
  • 330° at 9 KTS
Visibility
10,000+ meters
Flight Rules
VFR
Cloud Levels
  • Few at 2,000' AGL
Temperature
17°C / 63°F
Dewpoint
12°C / 54°F
Humidity
73%
Altimeter
30" Hg
Pressure
1015.92 hPa